Terminal Aerodrome Forecast
Issued by NWS

Home | Current Version | Previous Version | Text Only | Print | Product List | Glossary On
Versions: 1 2 3 4 5 6 7 8 9 10 11 12 13 14 15 16 17 18 19 20
830
FTUS44 KLIX 251120
TAFMCB
TAF
KMCB 251120Z 2512/2612 17011KT P6SM OVC015
      TEMPO 2512/2514 VRB15G25KT 4SM TSRA OVC015CB
     FM251400 20012KT P6SM VCSH OVC040
     FM252000 19011KT P6SM BKN050
     FM260100 18003KT P6SM BKN070
     FM260700 20003KT P6SM BKN020
      TEMPO 2609/2612 2SM BR OVC010=

USA.gov is the U.S. government's official web portal to all federal, state and local government web resources and services.